M/V Alton St. Amant — WDE7604 — position and weather

sailwx.info

Track history (hours):
 
Tides and Currents Weather Stations Pressure Air Temp Water Temp Dewpoint Dewpoint Depression Visibility Wind Speed Wind Dir Waves Ship Positions

M/V Alton St. Amant

Owner: The Barge Investment Group Five, L.L.C., Harahan, LA. More information available from US FCC via Universal Licensing System and Coast Guard Vessel Documentation Center.

Last reported at 2018-Jun-24 20:30 UTC. Time now 2018-Jun-24 20:31 UTC.
Position N 29°23' W 094°52'.

Length 25 m; draft 3 m.

Type: Towing. MMSI: 367395270.

Date/timePositionNaut miles runAvg speedWind from/ knotsBaromVisibWave heightAir tempDewpointWater temp
2018-Jun-24 20:30N 29°23' W 094°52'0 0.0
2018-Jun-24 20:00N 29°23' W 094°52'0 0.0
2018-Jun-24 19:30N 29°23' W 094°52'0 0.0
2018-Jun-24 19:00N 29°23' W 094°52'0 0.0
2018-Jun-24 18:30N 29°23' W 094°52'0 0.0
2018-Jun-24 18:00N 29°23' W 094°52'0 0.0
2018-Jun-24 17:30N 29°23' W 094°52'0 0.0
2018-Jun-24 17:00N 29°23' W 094°52'0 0.0
2018-Jun-24 16:30N 29°23' W 094°52'1 2.8
2018-Jun-24 16:00N 29°22' W 094°54'1 0.1
2018-Jun-23 22:53N 29°23' W 094°52'0 0.1
2018-Jun-23 22:30N 29°23' W 094°52'0 0.0
2018-Jun-23 22:00N 29°23' W 094°52'0 0.0
2018-Jun-23 21:30N 29°23' W 094°52'0 0.0
2018-Jun-23 21:00N 29°23' W 094°52'0 0.0
2018-Jun-23 20:27N 29°23' W 094°52'0 0.0
2018-Jun-23 19:59N 29°23' W 094°52'0 0.0
2018-Jun-23 19:25N 29°23' W 094°52'0 0.0
2018-Jun-23 19:00N 29°23' W 094°52'0 0.0
2018-Jun-23 18:29N 29°23' W 094°52'0 0.0
2018-Jun-23 18:00N 29°23' W 094°52'0 0.0
2018-Jun-23 17:25N 29°23' W 094°52'0 0.0
2018-Jun-23 16:58N 29°23' W 094°52'0 0.0
2018-Jun-23 16:28N 29°23' W 094°52'0 0.0
2018-Jun-23 16:00N 29°23' W 094°52'0 0.0
2018-Jun-23 15:28N 29°23' W 094°52'0 0.0
2018-Jun-23 14:49N 29°23' W 094°52'0 0.0
2018-Jun-23 14:30N 29°23' W 094°52'0 0.0
2018-Jun-23 14:00N 29°23' W 094°52'0 0.0
2018-Jun-23 13:29N 29°23' W 094°52'0 0.0
2018-Jun-23 13:00N 29°23' W 094°52'0 0.0
2018-Jun-23 12:30N 29°23' W 094°52'0 0.0
2018-Jun-23 12:00N 29°23' W 094°52'0 0.0
2018-Jun-23 11:30N 29°23' W 094°52'0 0.0
2018-Jun-23 11:00N 29°23' W 094°52'0 0.0
2018-Jun-23 10:30N 29°23' W 094°52'0 0.0
2018-Jun-23 10:00N 29°23' W 094°52'0 0.1
2018-Jun-23 09:30N 29°23' W 094°52'0 0.0
2018-Jun-23 08:58N 29°23' W 094°52'0 0.0
2018-Jun-23 08:30N 29°23' W 094°52'0 0.0
2018-Jun-23 08:00N 29°23' W 094°52'0 0.0
2018-Jun-23 07:30N 29°23' W 094°52'0 0.0
2018-Jun-23 06:58N 29°23' W 094°52'0 0.0
2018-Jun-23 06:26N 29°23' W 094°52'0 0.0
2018-Jun-23 05:59N 29°23' W 094°52'0 0.0
2018-Jun-23 05:30N 29°23' W 094°52'0 0.0
2018-Jun-23 05:00N 29°23' W 094°52'0 0.0
2018-Jun-23 04:29N 29°23' W 094°52'0 0.0
2018-Jun-23 04:00N 29°23' W 094°52'0 0.0
2018-Jun-23 03:30N 29°23' W 094°52'0 0.0
2018-Jun-23 03:00N 29°23' W 094°52'0 0.0
2018-Jun-23 02:30N 29°23' W 094°52'0 0.0
2018-Jun-23 02:00N 29°23' W 094°52'0 0.0
2018-Jun-23 01:30N 29°23' W 094°52'0 0.0
2018-Jun-23 01:00N 29°23' W 094°52'0 0.0
2018-Jun-23 00:30N 29°23' W 094°52'0 0.0
2018-Jun-23 00:00N 29°23' W 094°52'1 1.9
2018-Jun-22 23:28N 29°23' W 094°53'1 1.7
2018-Jun-22 23:00N 29°22' W 094°53'0 0.0
2018-Jun-22 22:28N 29°22' W 094°53'0 0.0
2018-Jun-22 22:00N 29°22' W 094°53'0 0.0
2018-Jun-22 21:30N 29°22' W 094°53'0 0.0
2018-Jun-22 21:00N 29°22' W 094°53'0 0.0
2018-Jun-22 20:30N 29°22' W 094°53'0 0.0
2018-Jun-22 20:00N 29°22' W 094°53'0 0.0
2018-Jun-22 19:29N 29°22' W 094°53'0 0.0
2018-Jun-22 19:00N 29°22' W 094°53'1 1.7
2018-Jun-22 18:30N 29°23' W 094°53'2 4.1
2018-Jun-22 18:00N 29°22' W 094°51'2 4.2
2018-Jun-22 17:30N 29°22' W 094°49'2 3.3
2018-Jun-22 17:00N 29°23' W 094°49'11 4.5
2018-Jun-22 14:35N 29°33' W 094°55'0 4.4
2018-Jun-22 14:28N 29°33' W 094°55'2 4.5
2018-Jun-22 14:00N 29°35' W 094°56'2 4.4
2018-Jun-22 13:29N 29°37' W 094°57'2 3.9
2018-Jun-22 13:00N 29°39' W 094°58'2 4.2
2018-Jun-22 12:30N 29°41' W 094°59'2 4.5
2018-Jun-22 12:00N 29°42' W 095°01'6 1.8
2018-Jun-22 08:47N 29°47' W 095°04'1 1.5
2018-Jun-22 08:12N 29°46' W 095°05'0 2.3
2018-Jun-22 07:59N 29°46' W 095°05'2 4.6
2018-Jun-22 07:30N 29°44' W 095°03'3 3.8
2018-Jun-22 06:43N 29°42' W 095°01'1 7.2
2018-Jun-22 06:30N 29°41' W 094°59'4 7.9
2018-Jun-22 06:00N 29°38' W 094°58'4 8.3
2018-Jun-22 05:30N 29°34' W 094°55'4 8.3
2018-Jun-22 04:59N 29°31' W 094°53'4 8.0
2018-Jun-22 04:30N 29°27' W 094°51'4 8.0
2018-Jun-22 04:00N 29°23' W 094°49'2 4.7
2018-Jun-22 03:30N 29°23' W 094°46'3 6.6
2018-Jun-22 03:00N 29°25' W 094°43'4 5.5
2018-Jun-22 02:13N 29°28' W 094°39'1 6.4
2018-Jun-22 01:59N 29°29' W 094°38'4 6.5
2018-Jun-22 01:24N 29°30' W 094°34'3 6.5
2018-Jun-22 00:57N 29°31' W 094°30'3 6.6
2018-Jun-22 00:30N 29°33' W 094°28'3 6.1
2018-Jun-22 00:00N 29°35' W 094°25'2 4.6
2018-Jun-21 23:30N 29°36' W 094°23'2 4.2
2018-Jun-21 23:00N 29°37' W 094°21'3 6.2
2018-Jun-21 22:30N 29°38' W 094°18'2 3.8
2018-Jun-21 21:59N 29°39' W 094°16'2 3.9
2018-Jun-21 21:30N 29°40' W 094°14'3 6.1
2018-Jun-21 21:00N 29°41' W 094°10'3 5.8
2018-Jun-21 20:30N 29°43' W 094°08'3 6.2
2018-Jun-21 20:00N 29°45' W 094°05'3 6.4
2018-Jun-21 19:30N 29°47' W 094°02'3 6.3
2018-Jun-21 19:00N 29°49' W 093°59'1 2.0
2018-Jun-21 18:30N 29°49' W 093°58'1 2.4
2018-Jun-21 18:00N 29°50' W 093°57'3 5.7
2018-Jun-21 17:30N 29°53' W 093°56'3 5.3
2018-Jun-21 17:00N 29°55' W 093°54'3 5.4
2018-Jun-21 16:30N 29°57' W 093°52'2 3.2
2018-Jun-21 16:00N 29°58' W 093°51'2 4.6
2018-Jun-21 15:30N 29°59' W 093°49'2 4.5
2018-Jun-21 15:00N 30°00' W 093°46'3 6.5
2018-Jun-21 14:30N 30°03' W 093°44'4 7.4
2018-Jun-21 14:00N 30°04' W 093°40'4 7.3
2018-Jun-21 13:27N 30°04' W 093°35'3 6.3
2018-Jun-21 13:00N 30°04' W 093°32'3 6.6
2018-Jun-21 12:30N 30°04' W 093°28'3 6.4
2018-Jun-21 12:00N 30°04' W 093°24'3 5.8
2018-Jun-21 11:30N 30°04' W 093°21'2 3.6
2018-Jun-21 11:00N 30°05' W 093°20'2 3.4
2018-Jun-21 10:30N 30°05' W 093°18'1 2.5
2018-Jun-21 10:00N 30°05' W 093°17'1 1.0
2018-Jun-21 09:30N 30°04' W 093°16'0 0.3
2018-Jun-21 09:00N 30°04' W 093°16'0 0.0
2018-Jun-21 08:30N 30°04' W 093°16'0 0.0
2018-Jun-21 08:00N 30°04' W 093°16'0 0.0
2018-Jun-21 07:30N 30°04' W 093°16'0 0.1
2018-Jun-21 07:00N 30°04' W 093°16'0 0.4
2018-Jun-21 06:30N 30°04' W 093°16'0 0.0
2018-Jun-21 06:00N 30°04' W 093°16'0 0.0
2018-Jun-21 05:30N 30°04' W 093°16'0 0.5
2018-Jun-21 04:59N 30°04' W 093°16'0 1.0
2018-Jun-21 04:30N 30°03' W 093°16'1 1.5
2018-Jun-21 04:00N 30°02' W 093°16'1 1.7
2018-Jun-21 03:30N 30°02' W 093°15'1 1.1
2018-Jun-21 03:00N 30°02' W 093°14'0 0.0
2018-Jun-21 02:30N 30°02' W 093°14'0 0.0
2018-Jun-21 02:00N 30°02' W 093°14'0 0.1
2018-Jun-21 01:30N 30°02' W 093°14'0 0.1
2018-Jun-21 01:00N 30°02' W 093°14'1 1.3
2018-Jun-21 00:30N 30°01' W 093°14'3 5.1
2018-Jun-21 00:00N 29°59' W 093°12'3 5.7
2018-Jun-20 23:30N 29°57' W 093°10'3 5.1
2018-Jun-20 23:00N 29°56' W 093°07'3 5.5
2018-Jun-20 22:29N 29°56' W 093°04'35 5.5
2018-Jun-20 16:09N 29°53' W 092°24'3 4.6
2018-Jun-20 15:28N 29°51' W 092°22'2 3.5
2018-Jun-20 15:00N 29°51' W 092°20'1 1.2
2018-Jun-20 14:30N 29°50' W 092°19'2 3.8
2018-Jun-20 14:00N 29°49' W 092°17'2 4.6
2018-Jun-20 13:30N 29°48' W 092°15'3 5.1
2018-Jun-20 13:00N 29°47' W 092°12'1 2.2
2018-Jun-20 12:30N 29°47' W 092°11'1 1.5
2018-Jun-20 12:00N 29°47' W 092°10'0 0.9
2018-Jun-20 11:30N 29°47' W 092°10'0 0.0
2018-Jun-20 11:00N 29°47' W 092°10'0 0.0
2018-Jun-20 10:30N 29°47' W 092°10'0 0.0
2018-Jun-20 10:00N 29°47' W 092°10'0 0.0
2018-Jun-20 09:30N 29°47' W 092°10'0 0.0
2018-Jun-20 09:00N 29°47' W 092°10'0 0.0
2018-Jun-20 08:30N 29°47' W 092°10'0 0.0
2018-Jun-20 08:00N 29°47' W 092°10'0 0.0
2018-Jun-20 07:30N 29°47' W 092°10'0 0.0
2018-Jun-20 07:00N 29°47' W 092°10'0 0.3
2018-Jun-20 06:30N 29°47' W 092°10'2 3.5
2018-Jun-20 06:00N 29°47' W 092°08'1 2.5
2018-Jun-20 05:30N 29°48' W 092°06'0 0.0
2018-Jun-20 05:00N 29°48' W 092°06'0 0.0
2018-Jun-20 04:30N 29°48' W 092°06'0 0.0
2018-Jun-20 04:00N 29°48' W 092°06'0 0.0
2018-Jun-20 03:30N 29°48' W 092°06'0 0.0
2018-Jun-20 03:00N 29°48' W 092°06'0 0.0
2018-Jun-20 02:30N 29°48' W 092°06'0 0.0
2018-Jun-20 02:00N 29°48' W 092°06'0 0.0
2018-Jun-20 01:30N 29°48' W 092°06'0 0.1
2018-Jun-20 01:00N 29°48' W 092°06'0 0.0
2018-Jun-20 00:30N 29°48' W 092°06'0 0.0
2018-Jun-20 00:00N 29°48' W 092°06'0 0.0
2018-Jun-19 23:30N 29°48' W 092°06'0 0.0
2018-Jun-19 22:58N 29°48' W 092°06'0 0.0
2018-Jun-19 22:30N 29°48' W 092°06'0 0.0
2018-Jun-19 21:59N 29°48' W 092°06'0 0.0
2018-Jun-19 21:30N 29°48' W 092°06'0 0.5
2018-Jun-19 21:00N 29°48' W 092°06'0 0.2
2018-Jun-19 20:29N 29°48' W 092°06'1 1.4
2018-Jun-19 20:00N 29°48' W 092°06'3 5.4
2018-Jun-19 19:30N 29°49' W 092°03'3 5.8
2018-Jun-19 19:00N 29°50' W 091°60'3 5.8
2018-Jun-19 18:28N 29°51' W 091°56'  
Track history (hours):
 
Tides and Currents Weather Stations Pressure Air Temp Water Temp Dewpoint Dewpoint Depression Visibility Wind Speed Wind Dir Waves Ship Positions

M/V Alton St. Amant

Owner: The Barge Investment Group Five, L.L.C., Harahan, LA. More information available from US FCC via Universal Licensing System and Coast Guard Vessel Documentation Center.

Last reported at 2018-Jun-24 20:30 UTC. Time now 2018-Jun-24 20:31 UTC.
Position N 29°23' W 094°52'.

Length 25 m; draft 3 m.

Type: Towing. MMSI: 367395270.

Date/timePositionNaut miles runAvg speedWind from/ knotsBaromVisibWave heightAir tempDewpointWater temp
2018-Jun-24 20:30N 29°23' W 094°52'0 0.0
2018-Jun-24 20:00N 29°23' W 094°52'0 0.0
2018-Jun-24 19:30N 29°23' W 094°52'0 0.0
2018-Jun-24 19:00N 29°23' W 094°52'0 0.0
2018-Jun-24 18:30N 29°23' W 094°52'0 0.0
2018-Jun-24 18:00N 29°23' W 094°52'0 0.0
2018-Jun-24 17:30N 29°23' W 094°52'0 0.0
2018-Jun-24 17:00N 29°23' W 094°52'0 0.0
2018-Jun-24 16:30N 29°23' W 094°52'1 2.8
2018-Jun-24 16:00N 29°22' W 094°54'1 0.1
2018-Jun-23 22:53N 29°23' W 094°52'0 0.1
2018-Jun-23 22:30N 29°23' W 094°52'0 0.0
2018-Jun-23 22:00N 29°23' W 094°52'0 0.0
2018-Jun-23 21:30N 29°23' W 094°52'0 0.0
2018-Jun-23 21:00N 29°23' W 094°52'0 0.0
2018-Jun-23 20:27N 29°23' W 094°52'0 0.0
2018-Jun-23 19:59N 29°23' W 094°52'0 0.0
2018-Jun-23 19:25N 29°23' W 094°52'0 0.0
2018-Jun-23 19:00N 29°23' W 094°52'0 0.0
2018-Jun-23 18:29N 29°23' W 094°52'0 0.0
2018-Jun-23 18:00N 29°23' W 094°52'0 0.0
2018-Jun-23 17:25N 29°23' W 094°52'0 0.0
2018-Jun-23 16:58N 29°23' W 094°52'0 0.0
2018-Jun-23 16:28N 29°23' W 094°52'0 0.0
2018-Jun-23 16:00N 29°23' W 094°52'0 0.0
2018-Jun-23 15:28N 29°23' W 094°52'0 0.0
2018-Jun-23 14:49N 29°23' W 094°52'0 0.0
2018-Jun-23 14:30N 29°23' W 094°52'0 0.0
2018-Jun-23 14:00N 29°23' W 094°52'0 0.0
2018-Jun-23 13:29N 29°23' W 094°52'0 0.0
2018-Jun-23 13:00N 29°23' W 094°52'0 0.0
2018-Jun-23 12:30N 29°23' W 094°52'0 0.0
2018-Jun-23 12:00N 29°23' W 094°52'0 0.0
2018-Jun-23 11:30N 29°23' W 094°52'0 0.0
2018-Jun-23 11:00N 29°23' W 094°52'0 0.0
2018-Jun-23 10:30N 29°23' W 094°52'0 0.0
2018-Jun-23 10:00N 29°23' W 094°52'0 0.1
2018-Jun-23 09:30N 29°23' W 094°52'0 0.0
2018-Jun-23 08:58N 29°23' W 094°52'0 0.0
2018-Jun-23 08:30N 29°23' W 094°52'0 0.0
2018-Jun-23 08:00N 29°23' W 094°52'0 0.0
2018-Jun-23 07:30N 29°23' W 094°52'0 0.0
2018-Jun-23 06:58N 29°23' W 094°52'0 0.0
2018-Jun-23 06:26N 29°23' W 094°52'0 0.0
2018-Jun-23 05:59N 29°23' W 094°52'0 0.0
2018-Jun-23 05:30N 29°23' W 094°52'0 0.0
2018-Jun-23 05:00N 29°23' W 094°52'0 0.0
2018-Jun-23 04:29N 29°23' W 094°52'0 0.0
2018-Jun-23 04:00N 29°23' W 094°52'0 0.0
2018-Jun-23 03:30N 29°23' W 094°52'0 0.0
2018-Jun-23 03:00N 29°23' W 094°52'0 0.0
2018-Jun-23 02:30N 29°23' W 094°52'0 0.0
2018-Jun-23 02:00N 29°23' W 094°52'0 0.0
2018-Jun-23 01:30N 29°23' W 094°52'0 0.0
2018-Jun-23 01:00N 29°23' W 094°52'0 0.0
2018-Jun-23 00:30N 29°23' W 094°52'0 0.0
2018-Jun-23 00:00N 29°23' W 094°52'1 1.9
2018-Jun-22 23:28N 29°23' W 094°53'1 1.7
2018-Jun-22 23:00N 29°22' W 094°53'0 0.0
2018-Jun-22 22:28N 29°22' W 094°53'0 0.0
2018-Jun-22 22:00N 29°22' W 094°53'0 0.0
2018-Jun-22 21:30N 29°22' W 094°53'0 0.0
2018-Jun-22 21:00N 29°22' W 094°53'0 0.0
2018-Jun-22 20:30N 29°22' W 094°53'0 0.0
2018-Jun-22 20:00N 29°22' W 094°53'0 0.0
2018-Jun-22 19:29N 29°22' W 094°53'0 0.0
2018-Jun-22 19:00N 29°22' W 094°53'1 1.7
2018-Jun-22 18:30N 29°23' W 094°53'2 4.1
2018-Jun-22 18:00N 29°22' W 094°51'2 4.2
2018-Jun-22 17:30N 29°22' W 094°49'2 3.3
2018-Jun-22 17:00N 29°23' W 094°49'11 4.5
2018-Jun-22 14:35N 29°33' W 094°55'0 4.4
2018-Jun-22 14:28N 29°33' W 094°55'2 4.5
2018-Jun-22 14:00N 29°35' W 094°56'2 4.4
2018-Jun-22 13:29N 29°37' W 094°57'2 3.9
2018-Jun-22 13:00N 29°39' W 094°58'2 4.2
2018-Jun-22 12:30N 29°41' W 094°59'2 4.5
2018-Jun-22 12:00N 29°42' W 095°01'6 1.8
2018-Jun-22 08:47N 29°47' W 095°04'1 1.5
2018-Jun-22 08:12N 29°46' W 095°05'0 2.3
2018-Jun-22 07:59N 29°46' W 095°05'2 4.6
2018-Jun-22 07:30N 29°44' W 095°03'3 3.8
2018-Jun-22 06:43N 29°42' W 095°01'1 7.2
2018-Jun-22 06:30N 29°41' W 094°59'4 7.9
2018-Jun-22 06:00N 29°38' W 094°58'4 8.3
2018-Jun-22 05:30N 29°34' W 094°55'4 8.3
2018-Jun-22 04:59N 29°31' W 094°53'4 8.0
2018-Jun-22 04:30N 29°27' W 094°51'4 8.0
2018-Jun-22 04:00N 29°23' W 094°49'2 4.7
2018-Jun-22 03:30N 29°23' W 094°46'3 6.6
2018-Jun-22 03:00N 29°25' W 094°43'4 5.5
2018-Jun-22 02:13N 29°28' W 094°39'1 6.4
2018-Jun-22 01:59N 29°29' W 094°38'4 6.5
2018-Jun-22 01:24N 29°30' W 094°34'3 6.5
2018-Jun-22 00:57N 29°31' W 094°30'3 6.6
2018-Jun-22 00:30N 29°33' W 094°28'3 6.1
2018-Jun-22 00:00N 29°35' W 094°25'2 4.6
2018-Jun-21 23:30N 29°36' W 094°23'2 4.2
2018-Jun-21 23:00N 29°37' W 094°21'3 6.2
2018-Jun-21 22:30N 29°38' W 094°18'2 3.8
2018-Jun-21 21:59N 29°39' W 094°16'2 3.9
2018-Jun-21 21:30N 29°40' W 094°14'3 6.1
2018-Jun-21 21:00N 29°41' W 094°10'3 5.8
2018-Jun-21 20:30N 29°43' W 094°08'3 6.2
2018-Jun-21 20:00N 29°45' W 094°05'3 6.4
2018-Jun-21 19:30N 29°47' W 094°02'3 6.3
2018-Jun-21 19:00N 29°49' W 093°59'1 2.0
2018-Jun-21 18:30N 29°49' W 093°58'1 2.4
2018-Jun-21 18:00N 29°50' W 093°57'3 5.7
2018-Jun-21 17:30N 29°53' W 093°56'3 5.3
2018-Jun-21 17:00N 29°55' W 093°54'3 5.4
2018-Jun-21 16:30N 29°57' W 093°52'2 3.2
2018-Jun-21 16:00N 29°58' W 093°51'2 4.6
2018-Jun-21 15:30N 29°59' W 093°49'2 4.5
2018-Jun-21 15:00N 30°00' W 093°46'3 6.5
2018-Jun-21 14:30N 30°03' W 093°44'4 7.4
2018-Jun-21 14:00N 30°04' W 093°40'4 7.3
2018-Jun-21 13:27N 30°04' W 093°35'3 6.3
2018-Jun-21 13:00N 30°04' W 093°32'3 6.6
2018-Jun-21 12:30N 30°04' W 093°28'3 6.4
2018-Jun-21 12:00N 30°04' W 093°24'3 5.8
2018-Jun-21 11:30N 30°04' W 093°21'2 3.6
2018-Jun-21 11:00N 30°05' W 093°20'2 3.4
2018-Jun-21 10:30N 30°05' W 093°18'1 2.5
2018-Jun-21 10:00N 30°05' W 093°17'1 1.0
2018-Jun-21 09:30N 30°04' W 093°16'0 0.3
2018-Jun-21 09:00N 30°04' W 093°16'0 0.0
2018-Jun-21 08:30N 30°04' W 093°16'0 0.0
2018-Jun-21 08:00N 30°04' W 093°16'0 0.0
2018-Jun-21 07:30N 30°04' W 093°16'0 0.1
2018-Jun-21 07:00N 30°04' W 093°16'0 0.4
2018-Jun-21 06:30N 30°04' W 093°16'0 0.0
2018-Jun-21 06:00N 30°04' W 093°16'0 0.0
2018-Jun-21 05:30N 30°04' W 093°16'0 0.5
2018-Jun-21 04:59N 30°04' W 093°16'0 1.0
2018-Jun-21 04:30N 30°03' W 093°16'1 1.5
2018-Jun-21 04:00N 30°02' W 093°16'1 1.7
2018-Jun-21 03:30N 30°02' W 093°15'1 1.1
2018-Jun-21 03:00N 30°02' W 093°14'0 0.0
2018-Jun-21 02:30N 30°02' W 093°14'0 0.0
2018-Jun-21 02:00N 30°02' W 093°14'0 0.1
2018-Jun-21 01:30N 30°02' W 093°14'0 0.1
2018-Jun-21 01:00N 30°02' W 093°14'1 1.3
2018-Jun-21 00:30N 30°01' W 093°14'3 5.1
2018-Jun-21 00:00N 29°59' W 093°12'3 5.7
2018-Jun-20 23:30N 29°57' W 093°10'3 5.1
2018-Jun-20 23:00N 29°56' W 093°07'3 5.5
2018-Jun-20 22:29N 29°56' W 093°04'35 5.5
2018-Jun-20 16:09N 29°53' W 092°24'3 4.6
2018-Jun-20 15:28N 29°51' W 092°22'2 3.5
2018-Jun-20 15:00N 29°51' W 092°20'1 1.2
2018-Jun-20 14:30N 29°50' W 092°19'2 3.8
2018-Jun-20 14:00N 29°49' W 092°17'2 4.6
2018-Jun-20 13:30N 29°48' W 092°15'3 5.1
2018-Jun-20 13:00N 29°47' W 092°12'1 2.2
2018-Jun-20 12:30N 29°47' W 092°11'1 1.5
2018-Jun-20 12:00N 29°47' W 092°10'0 0.9
2018-Jun-20 11:30N 29°47' W 092°10'0 0.0
2018-Jun-20 11:00N 29°47' W 092°10'0 0.0
2018-Jun-20 10:30N 29°47' W 092°10'0 0.0
2018-Jun-20 10:00N 29°47' W 092°10'0 0.0
2018-Jun-20 09:30N 29°47' W 092°10'0 0.0
2018-Jun-20 09:00N 29°47' W 092°10'0 0.0
2018-Jun-20 08:30N 29°47' W 092°10'0 0.0
2018-Jun-20 08:00N 29°47' W 092°10'0 0.0
2018-Jun-20 07:30N 29°47' W 092°10'0 0.0
2018-Jun-20 07:00N 29°47' W 092°10'0 0.3
2018-Jun-20 06:30N 29°47' W 092°10'2 3.5
2018-Jun-20 06:00N 29°47' W 092°08'1 2.5
2018-Jun-20 05:30N 29°48' W 092°06'0 0.0
2018-Jun-20 05:00N 29°48' W 092°06'0 0.0
2018-Jun-20 04:30N 29°48' W 092°06'0 0.0
2018-Jun-20 04:00N 29°48' W 092°06'0 0.0
2018-Jun-20 03:30N 29°48' W 092°06'0 0.0
2018-Jun-20 03:00N 29°48' W 092°06'0 0.0
2018-Jun-20 02:30N 29°48' W 092°06'0 0.0
2018-Jun-20 02:00N 29°48' W 092°06'0 0.0
2018-Jun-20 01:30N 29°48' W 092°06'0 0.1
2018-Jun-20 01:00N 29°48' W 092°06'0 0.0
2018-Jun-20 00:30N 29°48' W 092°06'0 0.0
2018-Jun-20 00:00N 29°48' W 092°06'0 0.0
2018-Jun-19 23:30N 29°48' W 092°06'0 0.0
2018-Jun-19 22:58N 29°48' W 092°06'0 0.0
2018-Jun-19 22:30N 29°48' W 092°06'0 0.0
2018-Jun-19 21:59N 29°48' W 092°06'0 0.0
2018-Jun-19 21:30N 29°48' W 092°06'0 0.5
2018-Jun-19 21:00N 29°48' W 092°06'0 0.2
2018-Jun-19 20:29N 29°48' W 092°06'1 1.4
2018-Jun-19 20:00N 29°48' W 092°06'3 5.4
2018-Jun-19 19:30N 29°49' W 092°03'3 5.8
2018-Jun-19 19:00N 29°50' W 091°60'3 5.8
2018-Jun-19 18:28N 29°51' W 091°56'  

Dump ship's entire track history